WZZ99DS EHEH-EPKT
Flight info
| Callsign | WZZ99DS |
|---|---|
| Flight time | 1h 19m |
| Altitude | 23000 |
| Route | VELNI Y869 SUMOP L179 ERKUM/N0436F390 L179 MEVEL Z44 HMM DCT ZUCKA DCT GOBAX DCT LASIS T714 MOFKE |
| Aircraft | A20N/M-SDE2E3FGHIRWXY/LB1 |
Departure
| Time | 2026-04-28 17:22 |
|---|---|
| Airport | Eindhoven Airport (EHEH) |
Arrival
| Time | 2026-04-28 18:41 |
|---|---|
| Airport | Katowice Wojciech Korfanty International Airport (EPKT) |
| Time | Latitude | Longitude | Altitude | Speed | Heading |
|---|---|---|---|---|---|
| 2026-04-28 16:54 | 51.45887 | 5.39102 | 74 ft | 0 kts | 125° |
| 2026-04-28 17:07 | 51.45888 | 5.39099 | 74 ft | 1 kts | 125° |
| 2026-04-28 17:07 | 51.45898 | 5.39077 | 59 ft | 3 kts | 125° |
| 2026-04-28 17:07 | 51.45910 | 5.39051 | 66 ft | 3 kts | 124° |
| 2026-04-28 17:07 | 51.45921 | 5.39024 | 64 ft | 3 kts | 128° |
| 2026-04-28 17:08 | 51.45934 | 5.39002 | 66 ft | 3 kts | 165° |
| 2026-04-28 17:08 | 51.45943 | 5.39001 | 65 ft | 1 kts | 212° |
| 2026-04-28 17:13 | 51.45943 | 5.39000 | 65 ft | 1 kts | 212° |
| 2026-04-28 17:14 | 51.45925 | 5.38982 | 70 ft | 5 kts | 213° |
| 2026-04-28 17:14 | 51.45882 | 5.38937 | 67 ft | 9 kts | 213° |
| 2026-04-28 17:14 | 51.45818 | 5.38866 | 71 ft | 13 kts | 221° |
| 2026-04-28 17:14 | 51.45816 | 5.38723 | 71 ft | 16 kts | 304° |
| 2026-04-28 17:15 | 51.45878 | 5.38576 | 71 ft | 12 kts | 304° |
| 2026-04-28 17:15 | 51.45932 | 5.38450 | 71 ft | 15 kts | 304° |
| 2026-04-28 17:15 | 51.45990 | 5.38317 | 68 ft | 6 kts | 304° |
| 2026-04-28 17:15 | 51.45995 | 5.38273 | 68 ft | 5 kts | 256° |
| 2026-04-28 17:16 | 51.45957 | 5.38220 | 67 ft | 9 kts | 212° |
| 2026-04-28 17:16 | 51.45888 | 5.38151 | 70 ft | 14 kts | 210° |
| 2026-04-28 17:16 | 51.45799 | 5.38054 | 72 ft | 18 kts | 217° |
| 2026-04-28 17:16 | 51.45688 | 5.37923 | 75 ft | 22 kts | 214° |
| 2026-04-28 17:17 | 51.45581 | 5.37808 | 72 ft | 14 kts | 213° |
| 2026-04-28 17:17 | 51.45489 | 5.37710 | 69 ft | 18 kts | 217° |
| 2026-04-28 17:17 | 51.45389 | 5.37589 | 72 ft | 15 kts | 216° |
| 2026-04-28 17:17 | 51.45292 | 5.37479 | 65 ft | 19 kts | 214° |
| 2026-04-28 17:18 | 51.45177 | 5.37353 | 70 ft | 16 kts | 214° |
| 2026-04-28 17:18 | 51.45072 | 5.37238 | 70 ft | 20 kts | 214° |
| 2026-04-28 17:18 | 51.44948 | 5.37110 | 72 ft | 23 kts | 219° |
| 2026-04-28 17:18 | 51.44814 | 5.36935 | 65 ft | 27 kts | 214° |
| 2026-04-28 17:19 | 51.44721 | 5.36838 | 70 ft | 14 kts | 213° |
| 2026-04-28 17:19 | 51.44627 | 5.36741 | 74 ft | 18 kts | 213° |
| 2026-04-28 17:19 | 51.44512 | 5.36610 | 67 ft | 22 kts | 218° |
| 2026-04-28 17:19 | 51.44377 | 5.36447 | 69 ft | 26 kts | 214° |
| 2026-04-28 17:20 | 51.44257 | 5.36321 | 74 ft | 21 kts | 213° |
| 2026-04-28 17:20 | 51.44197 | 5.36260 | 72 ft | 0 kts | 212° |
| 2026-04-28 17:20 | 51.44181 | 5.36259 | 72 ft | 4 kts | 171° |
| 2026-04-28 17:20 | 51.44156 | 5.36294 | 74 ft | 6 kts | 130° |
| 2026-04-28 17:21 | 51.44123 | 5.36362 | 70 ft | 9 kts | 127° |
| 2026-04-28 17:21 | 51.44149 | 5.36478 | 73 ft | 30 kts | 47° |
| 2026-04-28 17:21 | 51.44530 | 5.36911 | 67 ft | 100 kts | 36° |
| 2026-04-28 17:22 | 51.46187 | 5.38704 | 617 ft | 169 kts | 30° |
| 2026-04-28 17:22 | 51.47288 | 5.39673 | 1263 ft | 190 kts | 33° |
| 2026-04-28 17:22 | 51.48460 | 5.40719 | 1897 ft | 196 kts | 33° |
| 2026-04-28 17:23 | 51.50984 | 5.43383 | 2897 ft | 242 kts | 39° |
| 2026-04-28 17:23 | 51.52282 | 5.45230 | 3709 ft | 248 kts | 57° |
| 2026-04-28 17:23 | 51.52886 | 5.47716 | 4937 ft | 237 kts | 85° |
| 2026-04-28 17:23 | 51.52711 | 5.50294 | 6115 ft | 232 kts | 107° |
| 2026-04-28 17:24 | 51.52002 | 5.52566 | 7185 ft | 235 kts | 124° |
| 2026-04-28 17:24 | 51.50904 | 5.54639 | 8254 ft | 240 kts | 127° |
| 2026-04-28 17:24 | 51.49890 | 5.56799 | 9287 ft | 243 kts | 118° |
| 2026-04-28 17:24 | 51.49235 | 5.59227 | 10552 ft | 232 kts | 105° |
| 2026-04-28 17:25 | 51.48871 | 5.61759 | 11361 ft | 245 kts | 101° |
| 2026-04-28 17:25 | 51.48540 | 5.67614 | 12458 ft | 286 kts | 85° |
| 2026-04-28 17:25 | 51.49077 | 5.70827 | 12811 ft | 312 kts | 70° |
| 2026-04-28 17:26 | 51.49904 | 5.74199 | 13170 ft | 335 kts | 68° |
| 2026-04-28 17:26 | 51.50805 | 5.77726 | 13829 ft | 348 kts | 68° |
| 2026-04-28 17:26 | 51.51746 | 5.81411 | 14298 ft | 363 kts | 68° |
| 2026-04-28 17:26 | 51.52636 | 5.84930 | 15109 ft | 363 kts | 68° |
| 2026-04-28 17:27 | 51.53592 | 5.88742 | 15807 ft | 367 kts | 68° |
| 2026-04-28 17:27 | 51.54546 | 5.92575 | 16084 ft | 370 kts | 68° |
| 2026-04-28 17:27 | 51.55505 | 5.96442 | 16201 ft | 383 kts | 68° |
| 2026-04-28 17:27 | 51.56525 | 6.00566 | 16212 ft | 392 kts | 68° |
| 2026-04-28 17:28 | 51.57514 | 6.04570 | 16210 ft | 387 kts | 68° |
| 2026-04-28 17:28 | 51.59491 | 6.12599 | 16512 ft | 397 kts | 68° |
| 2026-04-28 17:28 | 51.60503 | 6.16724 | 17466 ft | 394 kts | 68° |
| 2026-04-28 17:29 | 51.61538 | 6.20948 | 18272 ft | 399 kts | 68° |
| 2026-04-28 17:29 | 51.62556 | 6.25109 | 18987 ft | 402 kts | 68° |
| 2026-04-28 17:29 | 51.63586 | 6.29326 | 19525 ft | 409 kts | 68° |
| 2026-04-28 17:30 | 51.65672 | 6.37898 | 20892 ft | 414 kts | 68° |
| 2026-04-28 17:30 | 51.67761 | 6.46508 | 22087 ft | 422 kts | 68° |
| 2026-04-28 17:30 | 51.68848 | 6.51004 | 22645 ft | 427 kts | 68° |
| 2026-04-28 17:31 | 51.69926 | 6.55473 | 23084 ft | 430 kts | 68° |
| 2026-04-28 17:31 | 51.72100 | 6.64511 | 23214 ft | 431 kts | 68° |
| 2026-04-28 17:32 | 51.74266 | 6.73548 | 23214 ft | 431 kts | 68° |
| 2026-04-28 17:32 | 51.75349 | 6.78077 | 23213 ft | 433 kts | 68° |
| 2026-04-28 17:32 | 51.76427 | 6.82603 | 23213 ft | 433 kts | 68° |
| 2026-04-28 17:32 | 51.77527 | 6.87225 | 23210 ft | 445 kts | 68° |
| 2026-04-28 17:33 | 51.78620 | 6.91828 | 23211 ft | 444 kts | 68° |
| 2026-04-28 17:33 | 51.79724 | 6.96488 | 23219 ft | 445 kts | 68° |
| 2026-04-28 17:33 | 51.80833 | 7.01184 | 23222 ft | 447 kts | 68° |
| 2026-04-28 17:33 | 51.81210 | 7.02776 | 23220 ft | 450 kts | 68° |
| 2026-04-28 17:34 | 51.83077 | 7.10700 | 24093 ft | 454 kts | 68° |
| 2026-04-28 17:34 | 51.84158 | 7.15475 | 24746 ft | 452 kts | 71° |
| 2026-04-28 17:34 | 51.84947 | 7.20398 | 25358 ft | 451 kts | 77° |
| 2026-04-28 17:34 | 51.85400 | 7.25296 | 25818 ft | 455 kts | 83° |
| 2026-04-28 17:35 | 51.85535 | 7.30578 | 26131 ft | 461 kts | 88° |
| 2026-04-28 17:35 | 51.85549 | 7.35786 | 26469 ft | 466 kts | 88° |
| 2026-04-28 17:35 | 51.85578 | 7.41078 | 26682 ft | 472 kts | 88° |
| 2026-04-28 17:35 | 51.85604 | 7.46399 | 27100 ft | 473 kts | 88° |
| 2026-04-28 17:36 | 51.85630 | 7.51626 | 27379 ft | 476 kts | 88° |
| 2026-04-28 17:36 | 51.85650 | 7.57026 | 27672 ft | 477 kts | 87° |
| 2026-04-28 17:36 | 51.85667 | 7.62418 | 27907 ft | 480 kts | 88° |
| 2026-04-28 17:36 | 51.85681 | 7.67819 | 28118 ft | 481 kts | 88° |
| 2026-04-28 17:37 | 51.85587 | 7.73234 | 28408 ft | 481 kts | 92° |
| 2026-04-28 17:37 | 51.85337 | 7.78596 | 28848 ft | 477 kts | 92° |
| 2026-04-28 17:37 | 51.85092 | 7.83955 | 29351 ft | 476 kts | 92° |
| 2026-04-28 17:37 | 51.84850 | 7.89325 | 29517 ft | 479 kts | 92° |
| 2026-04-28 17:38 | 51.84609 | 7.94694 | 29753 ft | 481 kts | 92° |
| 2026-04-28 17:38 | 51.84364 | 8.00108 | 29949 ft | 482 kts | 92° |
| 2026-04-28 17:38 | 51.84118 | 8.05514 | 30244 ft | 482 kts | 92° |
| 2026-04-28 17:38 | 51.83864 | 8.10867 | 30482 ft | 482 kts | 92° |
| 2026-04-28 17:39 | 51.83609 | 8.16220 | 30935 ft | 474 kts | 92° |
| 2026-04-28 17:39 | 51.83355 | 8.21554 | 31424 ft | 472 kts | 92° |
| 2026-04-28 17:39 | 51.82846 | 8.32112 | 32281 ft | 470 kts | 92° |
| 2026-04-28 17:40 | 51.82585 | 8.37406 | 32547 ft | 473 kts | 92° |
| 2026-04-28 17:40 | 51.82321 | 8.42720 | 32980 ft | 472 kts | 92° |
| 2026-04-28 17:40 | 51.82057 | 8.47990 | 33423 ft | 471 kts | 92° |
| 2026-04-28 17:40 | 51.81790 | 8.53267 | 33774 ft | 471 kts | 92° |
| 2026-04-28 17:41 | 51.81526 | 8.58465 | 34225 ft | 469 kts | 92° |
| 2026-04-28 17:41 | 51.81255 | 8.63711 | 34533 ft | 470 kts | 92° |
| 2026-04-28 17:41 | 51.80982 | 8.68986 | 34830 ft | 470 kts | 92° |
| 2026-04-28 17:41 | 51.80707 | 8.74244 | 35173 ft | 469 kts | 92° |
| 2026-04-28 17:42 | 51.80523 | 8.77727 | 35350 ft | 470 kts | 92° |
| 2026-04-28 17:42 | 51.80242 | 8.83005 | 35538 ft | 472 kts | 93° |
| 2026-04-28 17:42 | 51.79959 | 8.88285 | 35840 ft | 472 kts | 93° |
| 2026-04-28 17:42 | 51.79673 | 8.93558 | 36100 ft | 472 kts | 93° |
| 2026-04-28 17:43 | 51.79384 | 8.98859 | 36429 ft | 471 kts | 93° |
| 2026-04-28 17:43 | 51.79093 | 9.04135 | 36695 ft | 472 kts | 93° |
| 2026-04-28 17:43 | 51.78808 | 9.09269 | 36942 ft | 472 kts | 93° |
| 2026-04-28 17:44 | 51.78524 | 9.14369 | 37238 ft | 471 kts | 93° |
| 2026-04-28 17:44 | 51.78226 | 9.19653 | 37470 ft | 472 kts | 93° |
| 2026-04-28 17:44 | 51.77930 | 9.24867 | 37739 ft | 471 kts | 93° |
| 2026-04-28 17:44 | 51.77631 | 9.30097 | 37984 ft | 471 kts | 93° |
| 2026-04-28 17:45 | 51.77325 | 9.35392 | 38220 ft | 471 kts | 93° |
| 2026-04-28 17:45 | 51.77019 | 9.40668 | 38481 ft | 470 kts | 93° |
| 2026-04-28 17:45 | 51.76711 | 9.45928 | 38705 ft | 471 kts | 93° |
| 2026-04-28 17:45 | 51.76405 | 9.51104 | 38922 ft | 471 kts | 93° |
| 2026-04-28 17:46 | 51.76089 | 9.56416 | 39115 ft | 470 kts | 93° |
| 2026-04-28 17:46 | 51.75787 | 9.61462 | 39234 ft | 470 kts | 93° |
| 2026-04-28 17:46 | 51.75470 | 9.66715 | 39251 ft | 470 kts | 93° |
| 2026-04-28 17:47 | 51.74829 | 9.77207 | 39262 ft | 472 kts | 93° |
| 2026-04-28 17:47 | 51.74176 | 9.87748 | 39256 ft | 472 kts | 93° |
| 2026-04-28 17:48 | 51.73517 | 9.98221 | 39263 ft | 472 kts | 94° |
| 2026-04-28 17:48 | 51.72845 | 10.08755 | 39263 ft | 472 kts | 94° |
| 2026-04-28 17:49 | 51.72163 | 10.19303 | 39266 ft | 472 kts | 94° |
| 2026-04-28 17:49 | 51.71471 | 10.29844 | 39261 ft | 473 kts | 94° |
| 2026-04-28 17:50 | 51.70769 | 10.40397 | 39269 ft | 474 kts | 94° |
| 2026-04-28 17:50 | 51.70056 | 10.50961 | 39273 ft | 474 kts | 94° |
| 2026-04-28 17:51 | 51.69335 | 10.61505 | 39274 ft | 474 kts | 94° |
| 2026-04-28 17:51 | 51.68607 | 10.72016 | 39281 ft | 475 kts | 94° |
| 2026-04-28 17:52 | 51.67865 | 10.82605 | 39273 ft | 476 kts | 94° |
| 2026-04-28 17:52 | 51.66834 | 10.98526 | 39273 ft | 476 kts | 92° |
| 2026-04-28 17:53 | 51.66282 | 11.09148 | 39283 ft | 476 kts | 92° |
| 2026-04-28 17:53 | 51.65702 | 11.19784 | 39282 ft | 476 kts | 92° |
| 2026-04-28 17:54 | 51.65098 | 11.30434 | 39282 ft | 477 kts | 92° |
| 2026-04-28 17:54 | 51.64486 | 11.41014 | 39287 ft | 478 kts | 93° |
| 2026-04-28 17:55 | 51.63860 | 11.51675 | 39296 ft | 478 kts | 93° |
| 2026-04-28 17:55 | 51.63224 | 11.62340 | 39288 ft | 478 kts | 93° |
| 2026-04-28 17:56 | 51.62580 | 11.72981 | 39279 ft | 479 kts | 93° |
| 2026-04-28 17:56 | 51.61921 | 11.83688 | 39280 ft | 480 kts | 93° |
| 2026-04-28 17:57 | 51.61254 | 11.94376 | 39281 ft | 480 kts | 93° |
| 2026-04-28 17:57 | 51.60577 | 12.05062 | 39287 ft | 480 kts | 93° |
| 2026-04-28 17:58 | 51.59890 | 12.15749 | 39301 ft | 481 kts | 93° |
| 2026-04-28 17:58 | 51.59201 | 12.26324 | 39274 ft | 481 kts | 93° |
| 2026-04-28 17:59 | 51.58491 | 12.37063 | 39274 ft | 482 kts | 93° |
| 2026-04-28 17:59 | 51.57773 | 12.47778 | 39277 ft | 482 kts | 94° |
| 2026-04-28 18:00 | 51.57045 | 12.58485 | 39279 ft | 482 kts | 94° |
| 2026-04-28 18:00 | 51.56305 | 12.69228 | 39268 ft | 483 kts | 94° |
| 2026-04-28 18:01 | 51.55564 | 12.79877 | 39273 ft | 483 kts | 93° |
| 2026-04-28 18:01 | 51.54903 | 12.90677 | 39273 ft | 483 kts | 92° |
| 2026-04-28 18:02 | 51.54271 | 13.01424 | 39268 ft | 484 kts | 92° |
| 2026-04-28 18:02 | 51.53612 | 13.12196 | 39277 ft | 484 kts | 93° |
| 2026-04-28 18:03 | 51.52937 | 13.22978 | 39276 ft | 485 kts | 93° |
| 2026-04-28 18:03 | 51.52251 | 13.33764 | 39275 ft | 485 kts | 93° |
| 2026-04-28 18:04 | 51.51560 | 13.44471 | 39281 ft | 485 kts | 93° |
| 2026-04-28 18:04 | 51.50853 | 13.55261 | 39275 ft | 485 kts | 93° |
| 2026-04-28 18:05 | 51.50259 | 13.64214 | 39272 ft | 486 kts | 93° |
| 2026-04-28 18:05 | 51.49412 | 13.76806 | 39266 ft | 486 kts | 93° |
| 2026-04-28 18:06 | 51.48667 | 13.87634 | 39265 ft | 487 kts | 95° |
| 2026-04-28 18:06 | 51.46871 | 13.98159 | 39263 ft | 490 kts | 105° |
| 2026-04-28 18:07 | 51.44799 | 14.08500 | 39264 ft | 490 kts | 105° |
| 2026-04-28 18:07 | 51.42734 | 14.18869 | 39265 ft | 491 kts | 105° |
| 2026-04-28 18:08 | 51.40661 | 14.29253 | 39260 ft | 490 kts | 105° |
| 2026-04-28 18:08 | 51.38556 | 14.39727 | 39263 ft | 491 kts | 105° |
| 2026-04-28 18:09 | 51.36456 | 14.50119 | 39269 ft | 491 kts | 106° |
| 2026-04-28 18:09 | 51.34341 | 14.60529 | 39257 ft | 492 kts | 106° |
| 2026-04-28 18:10 | 51.32211 | 14.70954 | 39260 ft | 492 kts | 106° |
| 2026-04-28 18:10 | 51.30076 | 14.81353 | 39261 ft | 493 kts | 106° |
| 2026-04-28 18:11 | 51.27942 | 14.91692 | 39263 ft | 493 kts | 106° |
| 2026-04-28 18:11 | 51.25784 | 15.02092 | 39258 ft | 494 kts | 106° |
| 2026-04-28 18:12 | 51.23613 | 15.12501 | 39260 ft | 494 kts | 106° |
| 2026-04-28 18:12 | 51.21431 | 15.22904 | 39264 ft | 494 kts | 106° |
| 2026-04-28 18:13 | 51.19241 | 15.33299 | 39265 ft | 494 kts | 107° |
| 2026-04-28 18:13 | 51.17039 | 15.43695 | 39269 ft | 495 kts | 107° |
| 2026-04-28 18:14 | 51.14831 | 15.54065 | 39254 ft | 496 kts | 107° |
| 2026-04-28 18:14 | 51.12611 | 15.64438 | 39260 ft | 496 kts | 107° |
| 2026-04-28 18:15 | 51.10370 | 15.74854 | 39271 ft | 496 kts | 107° |
| 2026-04-28 18:15 | 51.08122 | 15.85249 | 39259 ft | 497 kts | 107° |
| 2026-04-28 18:16 | 51.05868 | 15.95625 | 39258 ft | 498 kts | 107° |
| 2026-04-28 18:16 | 51.03622 | 16.05910 | 39258 ft | 498 kts | 107° |
| 2026-04-28 18:17 | 51.01560 | 16.15307 | 39268 ft | 498 kts | 107° |
| 2026-04-28 18:17 | 50.99269 | 16.25694 | 39289 ft | 498 kts | 107° |
| 2026-04-28 18:18 | 50.96973 | 16.36058 | 39270 ft | 499 kts | 107° |
| 2026-04-28 18:18 | 50.95042 | 16.44731 | 39265 ft | 499 kts | 107° |
| 2026-04-28 18:19 | 50.92329 | 16.56861 | 38992 ft | 499 kts | 107° |
| 2026-04-28 18:19 | 50.91178 | 16.61987 | 38546 ft | 501 kts | 107° |
| 2026-04-28 18:19 | 50.90109 | 16.67212 | 38031 ft | 497 kts | 104° |
| 2026-04-28 18:20 | 50.89124 | 16.72452 | 37337 ft | 496 kts | 104° |
| 2026-04-28 18:20 | 50.88153 | 16.77689 | 36639 ft | 497 kts | 104° |
| 2026-04-28 18:20 | 50.87164 | 16.82960 | 35964 ft | 501 kts | 105° |
| 2026-04-28 18:20 | 50.86153 | 16.88260 | 35312 ft | 504 kts | 105° |
| 2026-04-28 18:21 | 50.85126 | 16.93581 | 34640 ft | 506 kts | 105° |
| 2026-04-28 18:21 | 50.84112 | 16.98801 | 33934 ft | 505 kts | 105° |
| 2026-04-28 18:21 | 50.83068 | 17.04147 | 33104 ft | 505 kts | 105° |
| 2026-04-28 18:21 | 50.82074 | 17.09220 | 32348 ft | 502 kts | 105° |
| 2026-04-28 18:22 | 50.81016 | 17.14608 | 31454 ft | 502 kts | 105° |
| 2026-04-28 18:22 | 50.79975 | 17.19895 | 30652 ft | 501 kts | 105° |
| 2026-04-28 18:22 | 50.78943 | 17.25117 | 30042 ft | 495 kts | 105° |
| 2026-04-28 18:22 | 50.77920 | 17.30285 | 29343 ft | 489 kts | 105° |
| 2026-04-28 18:23 | 50.76909 | 17.35376 | 28649 ft | 483 kts | 105° |
| 2026-04-28 18:23 | 50.75908 | 17.40407 | 27972 ft | 478 kts | 105° |
| 2026-04-28 18:23 | 50.74916 | 17.45375 | 27457 ft | 469 kts | 105° |
| 2026-04-28 18:23 | 50.73939 | 17.50258 | 26862 ft | 464 kts | 105° |
| 2026-04-28 18:24 | 50.72972 | 17.55085 | 26243 ft | 459 kts | 105° |
| 2026-04-28 18:24 | 50.72336 | 17.58252 | 25824 ft | 457 kts | 105° |
| 2026-04-28 18:24 | 50.71055 | 17.64613 | 25013 ft | 451 kts | 105° |
| 2026-04-28 18:24 | 50.70105 | 17.69317 | 24438 ft | 447 kts | 105° |
| 2026-04-28 18:25 | 50.69164 | 17.73967 | 23865 ft | 443 kts | 105° |
| 2026-04-28 18:25 | 50.68229 | 17.78575 | 23213 ft | 438 kts | 105° |
| 2026-04-28 18:25 | 50.67314 | 17.83070 | 22615 ft | 433 kts | 105° |
| 2026-04-28 18:26 | 50.65480 | 17.92061 | 21402 ft | 423 kts | 106° |
| 2026-04-28 18:26 | 50.64581 | 17.96449 | 20824 ft | 418 kts | 105° |
| 2026-04-28 18:26 | 50.63693 | 18.00777 | 20230 ft | 415 kts | 105° |
| 2026-04-28 18:26 | 50.62823 | 18.05009 | 19644 ft | 411 kts | 105° |
| 2026-04-28 18:27 | 50.61938 | 18.09296 | 19102 ft | 407 kts | 105° |
| 2026-04-28 18:27 | 50.61066 | 18.13516 | 18561 ft | 403 kts | 105° |
| 2026-04-28 18:27 | 50.60411 | 18.16679 | 18103 ft | 399 kts | 105° |
| 2026-04-28 18:27 | 50.59948 | 18.18903 | 17774 ft | 397 kts | 105° |
| 2026-04-28 18:28 | 50.59110 | 18.22937 | 17447 ft | 386 kts | 105° |
| 2026-04-28 18:28 | 50.58272 | 18.26962 | 16997 ft | 379 kts | 105° |
| 2026-04-28 18:28 | 50.57455 | 18.30886 | 16548 ft | 374 kts | 105° |
| 2026-04-28 18:28 | 50.56660 | 18.34691 | 16104 ft | 361 kts | 105° |
| 2026-04-28 18:29 | 50.55883 | 18.38409 | 15417 ft | 356 kts | 105° |
| 2026-04-28 18:29 | 50.55111 | 18.42098 | 14741 ft | 352 kts | 105° |
| 2026-04-28 18:29 | 50.54460 | 18.45766 | 14076 ft | 343 kts | 93° |
| 2026-04-28 18:29 | 50.54578 | 18.49378 | 13360 ft | 331 kts | 71° |
| 2026-04-28 18:30 | 50.55137 | 18.51608 | 12881 ft | 321 kts | 55° |
| 2026-04-28 18:30 | 50.55998 | 18.53457 | 12421 ft | 312 kts | 40° |
| 2026-04-28 18:30 | 50.59039 | 18.55854 | 11275 ft | 289 kts | 2° |
| 2026-04-28 18:30 | 50.60991 | 18.55477 | 10610 ft | 281 kts | 338° |
| 2026-04-28 18:31 | 50.62135 | 18.54466 | 10166 ft | 279 kts | 321° |
| 2026-04-28 18:31 | 50.63313 | 18.52125 | 9450 ft | 280 kts | 296° |
| 2026-04-28 18:31 | 50.63708 | 18.49140 | 8734 ft | 283 kts | 270° |
| 2026-04-28 18:31 | 50.63209 | 18.46093 | 8025 ft | 287 kts | 247° |
| 2026-04-28 18:32 | 50.62262 | 18.43372 | 7347 ft | 289 kts | 234° |
| 2026-04-28 18:32 | 50.60703 | 18.41329 | 6660 ft | 291 kts | 207° |
| 2026-04-28 18:32 | 50.58803 | 18.40613 | 6193 ft | 282 kts | 177° |
| 2026-04-28 18:32 | 50.57009 | 18.41348 | 6256 ft | 258 kts | 148° |
| 2026-04-28 18:33 | 50.55668 | 18.43294 | 6259 ft | 265 kts | 121° |
| 2026-04-28 18:33 | 50.54874 | 18.45834 | 6255 ft | 256 kts | 109° |
| 2026-04-28 18:33 | 50.54273 | 18.48373 | 6255 ft | 252 kts | 106° |
| 2026-04-28 18:33 | 50.53700 | 18.51035 | 6131 ft | 251 kts | 107° |
| 2026-04-28 18:34 | 50.53136 | 18.53625 | 6023 ft | 249 kts | 106° |
| 2026-04-28 18:34 | 50.52563 | 18.56190 | 5998 ft | 250 kts | 106° |
| 2026-04-28 18:34 | 50.51986 | 18.58722 | 5996 ft | 250 kts | 107° |
| 2026-04-28 18:34 | 50.51386 | 18.61336 | 5999 ft | 250 kts | 107° |
| 2026-04-28 18:35 | 50.50797 | 18.63885 | 5936 ft | 248 kts | 108° |
| 2026-04-28 18:35 | 50.50206 | 18.66420 | 5728 ft | 245 kts | 107° |
| 2026-04-28 18:35 | 50.49623 | 18.68924 | 5426 ft | 243 kts | 107° |
| 2026-04-28 18:35 | 50.49047 | 18.71395 | 5194 ft | 237 kts | 107° |
| 2026-04-28 18:36 | 50.48496 | 18.73762 | 5068 ft | 223 kts | 107° |
| 2026-04-28 18:36 | 50.47982 | 18.75969 | 4956 ft | 207 kts | 107° |
| 2026-04-28 18:36 | 50.47641 | 18.78107 | 4640 ft | 199 kts | 93° |
| 2026-04-28 18:36 | 50.47612 | 18.80257 | 4108 ft | 204 kts | 86° |
| 2026-04-28 18:37 | 50.47632 | 18.82530 | 3515 ft | 211 kts | 87° |
| 2026-04-28 18:37 | 50.47639 | 18.84837 | 3123 ft | 208 kts | 88° |
| 2026-04-28 18:37 | 50.47638 | 18.86960 | 3018 ft | 186 kts | 88° |
| 2026-04-28 18:37 | 50.47625 | 18.88845 | 2898 ft | 161 kts | 88° |
| 2026-04-28 18:38 | 50.47599 | 18.90482 | 2696 ft | 143 kts | 79° |
| 2026-04-28 18:38 | 50.47571 | 18.91990 | 2471 ft | 132 kts | 90° |
| 2026-04-28 18:38 | 50.47532 | 18.93427 | 2275 ft | 135 kts | 85° |
| 2026-04-28 18:38 | 50.47487 | 18.94832 | 2128 ft | 121 kts | 89° |
| 2026-04-28 18:39 | 50.47436 | 18.96169 | 1981 ft | 122 kts | 82° |
| 2026-04-28 18:39 | 50.47454 | 18.97496 | 1856 ft | 122 kts | 79° |
| 2026-04-28 18:39 | 50.47560 | 18.98805 | 1805 ft | 122 kts | 76° |
| 2026-04-28 18:39 | 50.47629 | 19.00131 | 1714 ft | 122 kts | 86° |
| 2026-04-28 18:40 | 50.47578 | 19.01478 | 1591 ft | 125 kts | 93° |
| 2026-04-28 18:40 | 50.47573 | 19.02856 | 1360 ft | 126 kts | 81° |
| 2026-04-28 18:40 | 50.47613 | 19.04202 | 1219 ft | 124 kts | 86° |
| 2026-04-28 18:40 | 50.47602 | 19.05584 | 1056 ft | 123 kts | 85° |
| 2026-04-28 18:41 | 50.47604 | 19.06847 | 982 ft | 106 kts | 89° |
| 2026-04-28 18:41 | 50.47608 | 19.07587 | 989 ft | 39 kts | 89° |
| 2026-04-28 18:41 | 50.47610 | 19.07961 | 988 ft | 35 kts | 95° |
| 2026-04-28 18:41 | 50.47601 | 19.08331 | 991 ft | 26 kts | 90° |
| 2026-04-28 18:42 | 50.47603 | 19.08614 | 996 ft | 25 kts | 89° |
| 2026-04-28 18:42 | 50.47597 | 19.08885 | 999 ft | 24 kts | 84° |
| 2026-04-28 18:42 | 50.47601 | 19.09146 | 1003 ft | 23 kts | 88° |
| 2026-04-28 18:42 | 50.47605 | 19.09362 | 1003 ft | 0 kts | 88° |
| 2026-04-28 18:43 | 50.47601 | 19.09380 | 1003 ft | 4 kts | 110° |
| 2026-04-28 18:43 | 50.47572 | 19.09410 | 1003 ft | 7 kts | 165° |
| 2026-04-28 18:43 | 50.47512 | 19.09417 | 1003 ft | 11 kts | 181° |
| 2026-04-28 18:43 | 50.47435 | 19.09408 | 1002 ft | 0 kts | 185° |
| 2026-04-28 18:44 | 50.47426 | 19.09406 | 1002 ft | 4 kts | 185° |
| 2026-04-28 18:45 | 50.47383 | 19.09400 | 1002 ft | 9 kts | 185° |
| 2026-04-28 18:45 | 50.47364 | 19.09397 | 1002 ft | 0 kts | 185° |
| 2026-04-28 18:45 | 50.47347 | 19.09394 | 1002 ft | 5 kts | 185° |
| 2026-04-28 18:46 | 50.47294 | 19.09386 | 1002 ft | 10 kts | 185° |
| 2026-04-28 18:46 | 50.47233 | 19.09326 | 1002 ft | 13 kts | 264° |
| 2026-04-28 18:46 | 50.47238 | 19.09166 | 1000 ft | 17 kts | 270° |
| 2026-04-28 18:46 | 50.47231 | 19.08956 | 1002 ft | 21 kts | 272° |
| 2026-04-28 18:47 | 50.47225 | 19.08710 | 997 ft | 25 kts | 276° |
| 2026-04-28 18:47 | 50.47238 | 19.08532 | 995 ft | 12 kts | 277° |
| 2026-04-28 18:47 | 50.47233 | 19.08373 | 998 ft | 17 kts | 266° |
| 2026-04-28 18:47 | 50.47226 | 19.08163 | 992 ft | 22 kts | 267° |
| 2026-04-28 18:48 | 50.47239 | 19.07907 | 991 ft | 25 kts | 274° |
| 2026-04-28 18:48 | 50.47233 | 19.07636 | 994 ft | 18 kts | 265° |
| 2026-04-28 18:48 | 50.47323 | 19.10380 | 1010 ft | 2 kts | 306° |